Time;durP1;ratioP1;P1;durP2;ratioP2;P2;SDS_P1;SDS_P2;PMS_P1;PMS_P2;Temp;Humidity;BMP_temperature;BMP_pressure;BME280_temperature;BME280_humidity;BME280_pressure;Samples;Min_cycle;Max_cycle;Signal;HPM_P1;HPM_P2
2021/07/26 00:02:02;;;;;;;;;;;;;;;26.88;48.71;100473.72;5088640;28;1146;-63
2021/07/26 00:04:29;;;;;;;;;;;;;;;26.86;48.67;100474.84;5070574;28;1248;-63
2021/07/26 00:06:56;;;;;;;;;;;;;;;26.86;48.93;100469.50;5088748;28;1067;-61
2021/07/26 00:09:22;;;;;;;;;;;;;;;26.79;48.94;100463.03;5069759;28;1199;-62
2021/07/26 00:11:49;;;;;;;;;;;;;;;26.79;48.68;100460.34;5087990;28;1028;-62
2021/07/26 00:14:16;;;;;;;;;;;;;;;26.82;48.58;100452.06;5088025;28;1299;-62
2021/07/26 00:16:42;;;;;;;;;;;;;;;26.81;48.85;100450.41;5088167;28;1976;-62
2021/07/26 00:19:09;;;;;;;;;;;;;;;26.74;48.79;100443.91;5088185;28;1229;-62
2021/07/26 00:21:36;;;;;;;;;;;;;;;26.79;47.93;100449.66;5070019;28;921;-63
2021/07/26 00:24:03;;;;;;;;;;;;;;;26.81;48.04;100450.41;5069605;28;1236;-63
2021/07/26 00:26:29;;;;;;;;;;;;;;;26.82;47.88;100452.06;5088744;28;1134;-64
2021/07/26 00:28:56;;;;;;;;;;;;;;;26.85;47.17;100452.63;5070087;28;1232;-63
2021/07/26 00:31:22;;;;;;;;;;;;;;;26.85;47.10;100455.28;5088374;28;1152;-62
2021/07/26 00:34:07;;;;;;;;;;;;;;;26.79;46.50;100458.53;5087768;28;1317;-62
2021/07/26 00:36:35;;;;;;;;;;;;;;;26.74;46.31;100465.28;5087946;28;1909;-62
2021/07/26 00:39:03;;;;;;;;;;;;;;;26.70;46.74;100462.06;5087772;28;1226;-64
2021/07/26 00:41:29;;;;;;;;;;;;;;;26.77;47.17;100470.34;5087504;28;1591;-63
2021/07/26 00:43:56;;;;;;;;;;;;;;;26.74;45.88;100466.16;5087494;28;1337;-63
2021/07/26 00:46:23;;;;;;;;;;;;;;;26.75;46.18;100459.78;5087578;28;1053;-63
2021/07/26 00:48:50;;;;;;;;;;;;;;;26.78;45.92;100464.84;5086626;28;1325;-62
2021/07/26 00:51:17;;;;;;;;;;;;;;;26.75;46.06;100462.47;5085817;28;1343;-63
2021/07/26 00:53:44;;;;;;;;;;;;;;;26.70;45.79;100464.75;5087474;28;1219;-62
2021/07/26 00:56:10;;;;;;;;;;;;;;;26.78;47.00;100453.34;5087631;28;1910;-63
2021/07/26 00:58:37;;;;;;;;;;;;;;;26.77;45.53;100454.31;5090146;28;1319;-62
2021/07/26 01:01:04;;;;;;;;;;;;;;;26.73;46.51;100463.59;5090891;28;1096;-63
2021/07/26 01:03:30;;;;;;;;;;;;;;;26.71;45.82;100457.56;5072645;28;1239;-62
2021/07/26 01:05:57;;;;;;;;;;;;;;;26.67;45.96;100461.50;5090839;28;1048;-64
2021/07/26 01:08:25;;;;;;;;;;;;;;;26.70;46.55;100464.75;5071648;28;1728;-63
2021/07/26 01:10:52;;;;;;;;;;;;;;;26.68;46.71;100469.41;5090628;28;925;-62
2021/07/26 01:13:19;;;;;;;;;;;;;;;26.67;46.38;100474.88;5091075;28;1039;-63
2021/07/26 01:15:46;;;;;;;;;;;;;;;26.68;46.55;100474.75;5090828;28;1363;-63
2021/07/26 01:18:15;;;;;;;;;;;;;;;26.68;46.93;100473.88;5090414;28;1913;-63
2021/07/26 01:20:42;;;;;;;;;;;;;;;26.67;46.67;100470.38;5090601;28;1177;-63
2021/07/26 01:23:08;;;;;;;;;;;;;;;26.63;47.02;100475.16;5090609;28;1334;-63
2021/07/26 01:25:36;;;;;;;;;;;;;;;26.70;47.44;100464.75;5090633;28;1287;-63
2021/07/26 01:28:03;;;;;;;;;;;;;;;26.70;47.36;100463.88;5090662;28;1082;-63
2021/07/26 01:30:31;;;;;;;;;;;;;;;26.70;47.63;100462.06;5090274;28;1331;-63
2021/07/26 01:32:58;;;;;;;;;;;;;;;26.60;47.28;100458.56;5089505;28;884;-63
2021/07/26 01:35:24;;;;;;;;;;;;;;;26.63;47.31;100453.78;5089954;28;1227;-63
2021/07/26 01:37:51;;;;;;;;;;;;;;;26.65;47.54;100456.31;5090119;28;1918;-64
2021/07/26 01:40:18;;;;;;;;;;;;;;;26.61;47.98;100454.91;5090173;28;1163;-63
2021/07/26 01:42:45;;;;;;;;;;;;;;;26.55;47.86;100461.69;5089749;28;1203;-63
2021/07/26 01:45:11;;;;;;;;;;;;;;;26.61;47.66;100463.78;5071775;28;1224;-63
2021/07/26 01:47:41;;;;;;;;;;;;;;;26.67;48.04;100465.03;5090123;28;766;-63
2021/07/26 01:50:09;;;;;;;;;;;;;;;26.60;47.93;100463.91;5090028;28;1317;-63
2021/07/26 01:52:36;;;;;;;;;;;;;;;26.61;47.49;100460.25;5089996;28;837;-63
2021/07/26 01:55:03;;;;;;;;;;;;;;;26.53;48.35;100458.34;5089646;28;1298;-63
2021/07/26 01:57:31;;;;;;;;;;;;;;;26.58;48.93;100458.72;5089652;28;1910;-63
2021/07/26 01:59:57;;;;;;;;;;;;;;;26.61;48.32;100463.78;5089740;28;1194;-63
2021/07/26 02:02:26;;;;;;;;;;;;;;;26.56;48.22;100459.88;5089830;28;1124;-63
2021/07/26 02:04:54;;;;;;;;;;;;;;;26.54;48.52;100453.81;5089853;28;1248;-63
2021/07/26 02:07:21;;;;;;;;;;;;;;;26.53;48.56;100450.31;5089985;28;830;-62
2021/07/26 02:09:48;;;;;;;;;;;;;;;26.52;48.83;100451.28;5088672;28;1345;-64
2021/07/26 02:12:14;;;;;;;;;;;;;;;26.50;49.10;100447.94;5090252;28;1047;-63
2021/07/26 02:14:41;;;;;;;;;;;;;;;26.50;49.49;100447.94;5089388;28;1354;-62
2021/07/26 02:17:08;;;;;;;;;;;;;;;26.51;49.55;100438.06;5089486;28;1985;-62
2021/07/26 02:19:35;;;;;;;;;;;;;;;26.43;49.83;100435.28;5089482;28;1358;-64
2021/07/26 02:22:01;;;;;;;;;;;;;;;26.43;49.67;100430.78;5089315;28;1594;-63
2021/07/26 02:24:28;;;;;;;;;;;;;;;26.46;49.59;100435.84;5071092;28;1272;-63
2021/07/26 02:26:55;;;;;;;;;;;;;;;26.42;49.63;100428.25;5089579;28;1233;-63
2021/07/26 02:29:21;;;;;;;;;;;;;;;26.46;50.45;100435.00;5070999;28;1587;-62
2021/07/26 02:31:48;;;;;;;;;;;;;;;26.43;50.57;100430.78;5089440;28;1039;-63
2021/07/26 02:34:15;;;;;;;;;;;;;;;26.44;50.46;100431.66;5088647;28;1331;-63
2021/07/26 02:36:41;;;;;;;;;;;;;;;26.43;50.38;100433.47;5089276;28;1910;-64
2021/07/26 02:39:08;;;;;;;;;;;;;;;26.43;50.40;100430.78;5089477;28;1268;-63
2021/07/26 02:41:35;;;;;;;;;;;;;;;26.43;50.38;100430.78;5089183;28;1727;-64
2021/07/26 02:44:01;;;;;;;;;;;;;;;26.46;50.24;100432.34;5089219;28;1201;-63
2021/07/26 02:46:28;;;;;;;;;;;;;;;26.43;50.22;100427.28;5070935;28;1056;-63
2021/07/26 02:48:55;;;;;;;;;;;;;;;26.37;50.04;100422.50;5089458;28;1329;-63
2021/07/26 02:51:22;;;;;;;;;;;;;;;26.35;49.77;100436.03;5088990;28;1110;-63
2021/07/26 02:53:48;;;;;;;;;;;;;;;26.39;49.48;100424.06;5088849;28;1224;-63
2021/07/26 02:56:15;;;;;;;;;;;;;;;26.35;49.75;100425.34;5089071;28;921;-63
2021/07/26 02:58:42;;;;;;;;;;;;;;;26.34;49.50;100425.47;5088817;28;2007;-63
2021/07/26 03:01:10;;;;;;;;;;;;;;;26.36;48.58;100423.50;5070370;28;1665;-62
2021/07/26 03:03:37;;;;;;;;;;;;;;;26.38;48.76;100411.69;5088531;28;1176;-62
2021/07/26 03:06:04;;;;;;;;;;;;;;;26.42;48.30;100415.75;5070323;28;1210;-64
2021/07/26 03:08:31;;;;;;;;;;;;;;;26.36;48.07;100419.00;5088536;28;1303;-63
2021/07/26 03:10:58;;;;;;;;;;;;;;;26.32;48.30;100419.44;5088428;28;1090;-63
2021/07/26 03:13:25;;;;;;;;;;;;;;;26.29;47.74;100417.06;5088416;28;1221;-63
2021/07/26 03:15:52;;;;;;;;;;;;;;;26.21;47.56;100415.09;5088362;28;1067;-63
2021/07/26 03:18:18;;;;;;;;;;;;;;;26.23;47.71;100407.81;5088643;28;1906;-63
2021/07/26 03:20:49;;;;;;;;;;;;;;;26.29;47.25;100415.25;5088018;28;1299;-64
2021/07/26 03:23:15;;;;;;;;;;;;;;;26.31;47.41;100413.25;5088547;28;1079;-62
2021/07/26 03:25:42;;;;;;;;;;;;;;;26.32;47.29;100416.78;5069949;28;1827;-63
2021/07/26 03:28:09;;;;;;;;;;;;;;;26.31;47.55;100415.94;5088550;28;1154;-65
2021/07/26 03:30:36;;;;;;;;;;;;;;;26.24;47.29;100416.63;5088596;28;1215;-65
2021/07/26 03:33:02;;;;;;;;;;;;;;;26.20;46.51;100416.09;5088169;28;992;-65
2021/07/26 03:35:29;;;;;;;;;;;;;;;26.28;47.29;100416.22;5088033;28;1322;-64
2021/07/26 03:37:56;;;;;;;;;;;;;;;26.29;45.93;100417.91;5087902;28;1983;-65
2021/07/26 03:40:23;;;;;;;;;;;;;;;26.33;46.70;100427.28;5087903;28;1314;-63
2021/07/26 03:42:49;;;;;;;;;;;;;;;26.32;45.44;100422.97;5088335;28;1678;-64
2021/07/26 03:45:18;;;;;;;;;;;;;;;26.34;44.70;100431.66;5088430;28;1216;-65
2021/07/26 03:47:45;;;;;;;;;;;;;;;26.28;44.42;100434.06;5088295;28;940;-64
2021/07/26 03:50:12;;;;;;;;;;;;;;;26.31;44.59;100434.63;5069772;28;1801;-63
2021/07/26 03:52:57;;;;;;;;;;;;;;;26.33;43.96;100434.47;5088309;28;786;-64
2021/07/26 03:55:28;;;;;;;;;;;;;;;26.33;44.29;100435.31;5088393;28;1287;-64
2021/07/26 03:57:55;;;;;;;;;;;;;;;26.34;43.93;100436.16;5088023;28;1967;-64
2021/07/26 04:00:22;;;;;;;;;;;;;;;26.32;44.12;100433.63;5088440;28;1484;-63
2021/07/26 04:02:56;;;;;;;;;;;;;;;26.37;43.51;100430.53;5053401;28;1211;-64
2021/07/26 04:05:34;;;;;;;;;;;;;;;26.30;43.17;100430.25;5088262;28;1216;-63
2021/07/26 04:08:12;;;;;;;;;;;;;;;26.32;43.37;100433.63;5088062;28;856;-64
2021/07/26 04:10:41;;;;;;;;;;;;;;;26.34;43.21;100433.47;5088453;28;1259;-64
2021/07/26 04:13:08;;;;;;;;;;;;;;;26.34;42.54;100437.00;5088241;28;785;-64
2021/07/26 04:15:35;;;;;;;;;;;;;;;26.30;42.62;100438.25;5088603;28;1292;-63
2021/07/26 04:18:02;;;;;;;;;;;;;;;26.32;42.61;100436.31;5087798;28;1955;-64
2021/07/26 04:20:28;;;;;;;;;;;;;;;26.34;42.53;100442.34;5088393;28;1321;-63
2021/07/26 04:22:55;;;;;;;;;;;;;;;26.33;42.26;100440.66;5087987;28;1103;-64
2021/07/26 04:25:22;;;;;;;;;;;;;;;26.34;42.75;100441.50;5087741;28;1305;-63
2021/07/26 04:27:49;;;;;;;;;;;;;;;26.31;42.84;100436.44;5088107;28;873;-64
2021/07/26 04:30:15;;;;;;;;;;;;;;;26.30;43.04;100446.28;5068992;28;1295;-65
2021/07/26 04:32:43;;;;;;;;;;;;;;;26.36;43.68;100443.03;5089497;28;849;-64
2021/07/26 04:35:10;;;;;;;;;;;;;;;26.37;42.90;100441.22;5096896;28;1350;-63
2021/07/26 04:37:37;;;;;;;;;;;;;;;26.37;43.84;100449.22;5094936;28;1917;-64
2021/07/26 04:40:05;;;;;;;;;;;;;;;26.33;42.82;100454.00;5092004;28;1169;-63
2021/07/26 04:42:31;;;;;;;;;;;;;;;26.29;43.19;100449.94;5092033;28;1438;-64
2021/07/26 04:44:58;;;;;;;;;;;;;;;26.26;43.25;100452.91;5091582;28;1244;-63
2021/07/26 04:47:25;;;;;;;;;;;;;;;26.29;43.96;100460.63;5073477;28;1339;-64
2021/07/26 04:49:51;;;;;;;;;;;;;;;26.34;42.79;100461.03;5109402;28;1242;-63
2021/07/26 04:52:18;;;;;;;;;;;;;;;26.30;43.19;100456.09;5109560;28;1094;-63
2021/07/26 04:54:45;;;;;;;;;;;;;;;26.27;42.79;100457.25;5109068;28;1223;-64
2021/07/26 04:57:12;;;;;;;;;;;;;;;26.32;42.79;100460.34;5095715;28;1035;-63
2021/07/26 04:59:38;;;;;;;;;;;;;;;26.31;43.08;100460.47;5091674;28;1913;-63
2021/07/26 05:02:05;;;;;;;;;;;;;;;26.29;43.17;100457.97;5092201;28;1250;-63
2021/07/26 05:04:32;;;;;;;;;;;;;;;26.32;43.50;100464.84;5073226;28;1307;-64
2021/07/26 05:07:00;;;;;;;;;;;;;;;26.34;43.00;100468.19;5073078;28;1115;-63
2021/07/26 05:09:28;;;;;;;;;;;;;;;26.29;43.41;100470.47;5091336;28;1205;-63
2021/07/26 05:11:59;;;;;;;;;;;;;;;26.27;43.62;100472.41;5091664;28;913;-63
2021/07/26 05:14:26;;;;;;;;;;;;;;;26.29;43.47;100482.00;5091340;28;1388;-62
2021/07/26 05:16:53;;;;;;;;;;;;;;;26.33;43.44;100487.84;5090971;28;992;-63
2021/07/26 05:19:20;;;;;;;;;;;;;;;26.33;43.14;100496.72;5090885;28;1905;-63
2021/07/26 05:21:46;;;;;;;;;;;;;;;26.35;43.27;100497.44;5091570;28;1130;-63
2021/07/26 05:24:13;;;;;;;;;;;;;;;26.34;43.09;100497.56;5090983;28;1228;-63
2021/07/26 05:26:39;;;;;;;;;;;;;;;26.33;43.02;100499.38;5073242;28;1047;-63
2021/07/26 05:29:06;;;;;;;;;;;;;;;26.35;43.46;100502.78;5091057;28;1240;-64
2021/07/26 05:31:33;;;;;;;;;;;;;;;26.39;43.48;100504.16;5091483;28;1158;-63
2021/07/26 05:34:00;;;;;;;;;;;;;;;26.37;43.40;100506.16;5091078;28;1189;-63
2021/07/26 05:36:26;;;;;;;;;;;;;;;26.38;43.71;100513.19;5091059;28;1044;-63
2021/07/26 05:38:53;;;;;;;;;;;;;;;26.36;43.20;100514.28;5072118;28;1910;-64
2021/07/26 05:41:20;;;;;;;;;;;;;;;26.39;43.26;100511.31;5090001;28;1468;-64
2021/07/26 05:43:47;;;;;;;;;;;;;;;26.39;43.66;100514.00;5089497;28;1213;-63
2021/07/26 05:46:13;;;;;;;;;;;;;;;26.42;43.56;100517.22;5090874;28;933;-63
2021/07/26 05:48:40;;;;;;;;;;;;;;;26.39;43.73;100514.84;5090901;28;1322;-64
2021/07/26 05:51:06;;;;;;;;;;;;;;;26.41;44.00;100520.91;5089170;28;1530;-66
2021/07/26 05:53:33;;;;;;;;;;;;;;;26.44;43.55;100523.28;5089435;28;1283;-64
2021/07/26 05:56:03;;;;;;;;;;;;;;;26.47;43.62;100514.16;5089811;28;1134;-66
2021/07/26 05:58:32;;;;;;;;;;;;;;;26.50;43.50;100506.69;5105091;28;1918;-66
2021/07/26 06:03:44;;;;;;;;;;;;;;;26.49;42.98;100512.16;5089291;28;1220;-61
2021/07/26 06:06:11;;;;;;;;;;;;;;;26.45;43.68;100524.09;5090342;28;1050;-62
2021/07/26 06:08:38;;;;;;;;;;;;;;;26.42;43.82;100525.25;5090143;28;1232;-62
2021/07/26 06:11:05;;;;;;;;;;;;;;;26.45;43.95;100529.44;5071140;28;1303;-62
2021/07/26 06:13:32;;;;;;;;;;;;;;;26.50;43.92;100532.56;5089132;28;1319;-62
2021/07/26 06:15:59;;;;;;;;;;;;;;;26.52;43.94;100523.41;5089230;28;1046;-63
2021/07/26 06:18:28;;;;;;;;;;;;;;;26.50;43.72;100519.22;5088596;28;1913;-62
2021/07/26 06:20:55;;;;;;;;;;;;;;;26.52;43.79;100525.25;5088987;28;967;-63
2021/07/26 06:23:22;;;;;;;;;;;;;;;26.48;43.45;100521.16;5089053;28;805;-62
2021/07/26 06:25:49;;;;;;;;;;;;;;;26.56;43.41;100523.97;5089405;28;1201;-65
2021/07/26 06:28:15;;;;;;;;;;;;;;;26.57;43.44;100523.81;5070527;28;1294;-65
2021/07/26 06:30:42;;;;;;;;;;;;;;;26.58;43.09;100522.00;5089341;28;1307;-62
2021/07/26 06:33:09;;;;;;;;;;;;;;;26.61;42.97;100525.22;5071403;28;710;-64
2021/07/26 06:35:36;;;;;;;;;;;;;;;26.63;43.05;100529.59;5088909;28;1225;-67
2021/07/26 06:38:03;;;;;;;;;;;;;;;26.63;43.06;100527.75;5088510;28;1906;-64
2021/07/26 06:40:33;;;;;;;;;;;;;;;26.60;42.83;100539.56;5088795;28;1230;-64
2021/07/26 06:43:00;;;;;;;;;;;;;;;26.65;43.30;100539.16;5088784;28;1613;-63
2021/07/26 06:45:27;;;;;;;;;;;;;;;26.65;42.84;100538.31;5088387;28;1310;-67
2021/07/26 06:47:54;;;;;;;;;;;;;;;26.68;42.87;100540.69;5103782;28;869;-64
2021/07/26 06:50:20;;;;;;;;;;;;;;;26.68;42.74;100532.66;5087904;28;1534;-66
2021/07/26 06:52:47;;;;;;;;;;;;;;;26.67;43.04;100537.16;5088263;28;924;-70
2021/07/26 06:55:14;;;;;;;;;;;;;;;26.70;43.13;100544.03;5069643;28;1237;-67
2021/07/26 06:57:40;;;;;;;;;;;;;;;26.72;43.23;100542.09;5088339;28;925;-69
2021/07/26 07:00:08;;;;;;;;;;;;;;;26.75;43.80;100552.50;5087817;28;1910;-71
2021/07/26 07:02:37;;;;;;;;;;;;;;;26.74;43.33;100545.44;5070012;28;1114;-74
2021/07/26 07:05:05;;;;;;;;;;;;;;;26.72;43.04;100545.59;5086559;28;1219;-68
2021/07/26 07:07:32;;;;;;;;;;;;;;;26.72;43.22;100537.56;5069882;28;853;-69
2021/07/26 07:09:58;;;;;;;;;;;;;;;26.73;43.71;100541.09;5069293;28;1322;-70
2021/07/26 07:12:25;;;;;;;;;;;;;;;26.71;43.22;100543.06;5087975;28;784;-66
2021/07/26 07:14:53;;;;;;;;;;;;;;;26.70;43.65;100536.88;5070475;28;1315;-65
2021/07/26 07:17:19;;;;;;;;;;;;;;;26.77;44.32;100540.66;5070321;28;1801;-67
2021/07/26 07:19:48;;;;;;;;;;;;;;;26.79;44.16;100549.38;5070228;28;1910;-65
2021/07/26 07:22:19;;;;;;;;;;;;;;;26.83;44.43;100549.97;5070757;28;1185;-63
2021/07/26 07:24:46;;;;;;;;;;;;;;;26.82;45.10;100553.63;5088877;28;1216;-66
2021/07/26 07:27:13;;;;;;;;;;;;;;;26.82;45.12;100554.47;5088883;28;1044;-64
2021/07/26 07:29:39;;;;;;;;;;;;;;;26.86;44.95;100555.03;5088534;28;1322;-67
2021/07/26 07:32:09;;;;;;;;;;;;;;;26.84;44.85;100557.81;5070758;28;1200;-67
2021/07/26 07:34:36;;;;;;;;;;;;;;;26.87;44.40;100544.16;5088475;28;1213;-64
2021/07/26 07:37:05;;;;;;;;;;;;;;;26.90;45.19;100551.09;5088654;28;1179;-70
2021/07/26 07:39:32;;;;;;;;;;;;;;;26.94;44.44;100552.47;5087940;28;1906;-70
2021/07/26 07:41:59;;;;;;;;;;;;;;;26.93;44.44;100546.25;5088593;28;1687;-69
2021/07/26 07:44:29;;;;;;;;;;;;;;;26.95;43.68;100548.81;5086830;28;1813;-68
2021/07/26 07:46:56;;;;;;;;;;;;;;;26.99;43.62;100536.84;5087050;28;1280;-70
2021/07/26 07:49:23;;;;;;;;;;;;;;;26.99;43.46;100528.84;5085564;28;1650;-69
2021/07/26 07:51:49;;;;;;;;;;;;;;;26.97;43.46;100531.63;5085300;28;1337;-67
2021/07/26 07:54:16;;;;;;;;;;;;;;;26.98;44.08;100535.16;5086041;28;1252;-68
2021/07/26 07:56:44;;;;;;;;;;;;;;;26.96;43.46;100539.81;5086573;28;1094;-67
2021/07/26 07:59:11;;;;;;;;;;;;;;;26.97;43.82;100536.13;5051101;28;1906;-68
2021/07/26 08:01:38;;;;;;;;;;;;;;;26.97;43.78;100539.66;5086572;28;1288;-68
2021/07/26 08:04:05;;;;;;;;;;;;;;;26.97;43.43;100541.47;5063644;28;1594;-67
2021/07/26 08:06:34;;;;;;;;;;;;;;;26.98;43.18;100549.38;5066292;28;1316;-63
2021/07/26 08:09:01;;;;;;;;;;;;;;;26.98;43.83;100548.53;5086429;28;1322;-63
2021/07/26 08:11:28;;;;;;;;;;;;;;;27.00;44.03;100546.53;5087144;28;1155;-65
2021/07/26 08:13:54;;;;;;;;;;;;;;;26.98;44.15;100549.38;5087704;28;1342;-66
2021/07/26 08:16:24;;;;;;;;;;;;;;;26.97;44.47;100546.81;5087369;28;1096;-67
2021/07/26 08:18:57;;;;;;;;;;;;;;;26.99;44.49;100544.88;5048839;28;1902;-65
2021/07/26 08:21:25;;;;;;;;;;;;;;;26.99;45.00;100555.56;5054854;28;922;-64
2021/07/26 08:23:52;;;;;;;;;;;;;;;27.00;45.42;100549.22;5068025;28;1302;-64
2021/07/26 08:26:20;;;;;;;;;;;;;;;27.02;44.44;100542.72;5086372;28;1096;-65
2021/07/26 08:28:46;;;;;;;;;;;;;;;27.02;44.33;100539.22;5086445;28;1334;-65
2021/07/26 08:31:13;;;;;;;;;;;;;;;27.04;44.08;100537.25;5086491;28;1076;-65
2021/07/26 08:33:40;;;;;;;;;;;;;;;27.09;44.42;100545.66;5086565;28;1326;-65
2021/07/26 08:36:06;;;;;;;;;;;;;;;27.11;44.40;100551.72;5086608;28;1193;-65
2021/07/26 08:38:33;;;;;;;;;;;;;;;27.10;44.60;100550.03;5087028;28;1902;-66
2021/07/26 08:41:00;;;;;;;;;;;;;;;27.10;44.52;100558.91;5086409;28;1113;-66
2021/07/26 08:43:28;;;;;;;;;;;;;;;27.12;43.98;100554.22;5086395;28;1518;-65
2021/07/26 08:45:54;;;;;;;;;;;;;;;27.20;44.10;100558.03;5085857;28;1019;-65
2021/07/26 08:48:23;;;;;;;;;;;;;;;27.19;43.80;100551.81;5086694;28;860;-65
2021/07/26 08:50:53;;;;;;;;;;;;;;;27.15;43.82;100545.06;5086580;28;1272;-66
2021/07/26 08:53:20;;;;;;;;;;;;;;;27.24;43.69;100554.88;5086777;28;774;-65
2021/07/26 08:55:48;;;;;;;;;;;;;;;27.24;43.90;100560.25;5068106;28;1272;-65
2021/07/26 08:58:15;;;;;;;;;;;;;;;27.21;44.29;100579.25;5086883;28;1338;-66
2021/07/26 09:00:42;;;;;;;;;;;;;;;27.19;44.02;100581.25;5067294;28;1968;-67
2021/07/26 09:03:09;;;;;;;;;;;;;;;27.19;44.05;100575.88;5085042;28;1024;-67
2021/07/26 09:05:36;;;;;;;;;;;;;;;27.20;43.68;100584.75;5086575;28;1307;-67
2021/07/26 09:08:03;;;;;;;;;;;;;;;27.16;43.74;100584.19;5048740;28;1196;-67
2021/07/26 09:10:35;;;;;;;;;;;;;;;27.16;43.70;100592.22;5061504;28;1338;-67
2021/07/26 09:13:02;;;;;;;;;;;;;;;27.15;43.71;100595.88;5066267;28;758;-66
2021/07/26 09:15:33;;;;;;;;;;;;;;;27.16;43.91;100586.88;5048416;28;1232;-68
2021/07/26 09:18:01;;;;;;;;;;;;;;;27.18;43.85;100586.75;5086016;28;1048;-66
2021/07/26 09:20:42;;;;;;;;;;;;;;;27.19;43.90;100604.44;5088971;28;1905;-67
2021/07/26 09:23:11;;;;;;;;;;;;;;;27.18;43.59;100608.13;5085683;28;1295;-67
2021/07/26 09:25:39;;;;;;;;;;;;;;;27.18;43.94;100608.94;5069215;28;1318;-67
2021/07/26 09:28:32;;;;;;;;;;;;;;;27.18;43.97;100606.28;5089900;28;765;-67
2021/07/26 09:31:04;;;;;;;;;;;;;;;27.22;44.22;100604.16;5087627;28;1573;-68
2021/07/26 09:33:31;;;;;;;;;;;;;;;27.21;44.16;100614.00;5071023;28;1377;-69
2021/07/26 09:36:04;;;;;;;;;;;;;;;27.21;44.15;100618.53;5089999;28;1044;-72
2021/07/26 09:38:31;;;;;;;;;;;;;;;27.21;44.33;100622.03;5089566;28;1986;-70
2021/07/26 09:41:00;;;;;;;;;;;;;;;27.23;46.61;100628.09;5088933;28;1057;-67
2021/07/26 09:43:27;;;;;;;;;;;;;;;27.19;47.16;100628.53;5090044;28;1478;-68
2021/07/26 09:45:55;;;;;;;;;;;;;;;27.23;47.59;100636.13;5089543;28;976;-67
2021/07/26 09:48:23;;;;;;;;;;;;;;;27.21;49.58;100639.94;5089894;28;786;-69
2021/07/26 09:50:50;;;;;;;;;;;;;;;27.20;50.47;100652.47;5090357;28;1335;-68
2021/07/26 09:53:17;;;;;;;;;;;;;;;27.23;50.44;100656.66;5089779;28;786;-69
2021/07/26 09:55:48;;;;;;;;;;;;;;;27.23;50.47;100649.50;5089723;28;1184;-70
2021/07/26 09:58:16;;;;;;;;;;;;;;;27.22;50.76;100653.16;5088564;28;856;-64
2021/07/26 10:00:43;;;;;;;;;;;;;;;27.20;50.73;100656.97;5087371;28;1980;-64
2021/07/26 10:03:13;;;;;;;;;;;;;;;27.23;50.44;100667.38;5068866;28;1292;-64
2021/07/26 10:05:42;;;;;;;;;;;;;;;27.23;51.19;100670.03;5068306;28;1434;-65
2021/07/26 10:08:09;;;;;;;;;;;;;;;27.26;50.22;100664.41;5068654;28;797;-65
2021/07/26 10:10:38;;;;;;;;;;;;;;;27.17;51.08;100668.78;5087525;28;1279;-66
2021/07/26 10:13:07;;;;;;;;;;;;;;;27.21;50.79;100667.50;5087370;28;833;-64
2021/07/26 10:15:40;;;;;;;;;;;;;;;27.22;50.85;100674.53;5089047;28;1185;-65
2021/07/26 10:18:08;;;;;;;;;;;;;;;27.22;51.31;100677.22;5089194;28;859;-65
2021/07/26 10:20:39;;;;;;;;;;;;;;;27.22;51.35;100682.56;5070738;28;1906;-65
2021/07/26 10:23:09;;;;;;;;;;;;;;;27.17;50.82;100671.47;5071004;28;806;-65
2021/07/26 10:25:39;;;;;;;;;;;;;;;27.23;51.27;100686.09;5089165;28;1606;-65
2021/07/26 10:28:10;;;;;;;;;;;;;;;27.21;51.37;100685.41;5070633;28;1353;-65
2021/07/26 10:30:39;;;;;;;;;;;;;;;27.20;51.44;100681.03;5069895;28;1293;-66
2021/07/26 10:33:06;;;;;;;;;;;;;;;27.22;51.97;100687.06;5088672;28;786;-65
2021/07/26 10:35:46;;;;;;;;;;;;;;;27.20;52.08;100687.22;5088469;28;1287;-65
2021/07/26 10:38:13;;;;;;;;;;;;;;;27.20;51.83;100697.91;5069795;28;1273;-65
2021/07/26 10:40:41;;;;;;;;;;;;;;;27.18;51.76;100693.69;5069733;28;1910;-65
2021/07/26 10:43:13;;;;;;;;;;;;;;;27.17;51.49;100700.03;5087994;28;1089;-66
2021/07/26 10:45:42;;;;;;;;;;;;;;;27.19;51.53;100704.25;5088313;28;1342;-65
2021/07/26 10:48:21;;;;;;;;;;;;;;;27.21;52.03;100709.47;5087952;28;834;-65
2021/07/26 10:50:48;;;;;;;;;;;;;;;27.18;51.81;100710.56;5088180;28;1218;-66
2021/07/26 10:53:34;;;;;;;;;;;;;;;27.17;52.00;100714.25;5069829;28;1083;-65
2021/07/26 10:56:11;;;;;;;;;;;;;;;27.15;51.65;100710.84;5088282;28;1050;-65
2021/07/26 10:58:37;;;;;;;;;;;;;;;27.14;51.50;100714.53;5088136;28;1224;-65
2021/07/26 11:01:16;;;;;;;;;;;;;;;27.18;51.30;100715.09;5088092;28;1971;-66
2021/07/26 11:03:43;;;;;;;;;;;;;;;27.17;51.12;100713.41;5103837;28;1192;-66
2021/07/26 11:06:10;;;;;;;;;;;;;;;27.17;51.72;100711.56;5088362;28;1179;-65
2021/07/26 11:08:37;;;;;;;;;;;;;;;27.15;52.45;100717.03;5103554;28;1275;-66
2021/07/26 11:11:03;;;;;;;;;;;;;;;27.20;52.04;100734.50;5088288;28;1115;-66
2021/07/26 11:13:49;;;;;;;;;;;;;;;27.20;52.43;100723.81;5069663;28;1290;-66
2021/07/26 11:16:36;;;;;;;;;;;;;;;27.18;52.93;100723.13;5087614;28;937;-66
2021/07/26 11:19:22;;;;;;;;;;;;;;;27.17;52.76;100719.59;5087755;28;1965;-65
2021/07/26 11:21:49;;;;;;;;;;;;;;;27.17;53.00;100708.03;5102804;28;1329;-65
2021/07/26 11:24:36;;;;;;;;;;;;;;;27.17;52.26;100708.03;5087783;28;1319;-65
2021/07/26 11:27:03;;;;;;;;;;;;;;;27.19;51.67;100714.94;5087739;28;1406;-65
2021/07/26 11:29:30;;;;;;;;;;;;;;;27.17;50.19;100718.75;5087332;28;1456;-66
2021/07/26 11:31:58;;;;;;;;;;;;;;;27.26;49.63;100713.38;5102300;28;1622;-67
2021/07/26 11:34:28;;;;;;;;;;;;;;;27.24;49.15;100710.00;5086229;28;1176;-71
2021/07/26 11:37:04;;;;;;;;;;;;;;;27.25;48.13;100717.03;5069343;28;1052;-70
2021/07/26 11:39:52;;;;;;;;;;;;;;;27.25;48.16;100722.38;5087676;28;1909;-69
2021/07/26 11:42:20;;;;;;;;;;;;;;;27.23;46.79;100713.66;5086545;28;1735;-68
2021/07/26 11:44:49;;;;;;;;;;;;;;;27.24;47.04;100718.00;5087362;28;1299;-68
2021/07/26 11:47:16;;;;;;;;;;;;;;;27.24;47.70;100720.69;5087198;28;1200;-70
2021/07/26 11:49:54;;;;;;;;;;;;;;;27.27;47.37;100723.06;5086489;28;1378;-68
2021/07/26 11:52:20;;;;;;;;;;;;;;;27.25;46.79;100737.59;5071962;28;1288;-69
2021/07/26 11:54:48;;;;;;;;;;;;;;;27.32;46.83;100738.72;5069115;28;1537;-68
2021/07/26 11:57:15;;;;;;;;;;;;;;;27.35;47.05;100733.06;5087374;28;1617;-64
2021/07/26 11:59:51;;;;;;;;;;;;;;;27.40;46.60;100734.31;5086867;28;1910;-70
2021/07/26 12:02:28;;;;;;;;;;;;;;;27.39;47.14;100746.00;5087373;28;929;-69
2021/07/26 12:05:01;;;;;;;;;;;;;;;27.39;46.73;100742.50;5067835;28;1248;-63
2021/07/26 12:07:38;;;;;;;;;;;;;;;27.41;46.72;100746.72;5086757;28;923;-63
2021/07/26 12:10:04;;;;;;;;;;;;;;;27.44;47.21;100738.44;5068496;28;1263;-63
2021/07/26 12:12:35;;;;;;;;;;;;;;;27.45;47.13;100742.78;5086719;28;1612;-66
2021/07/26 12:15:21;;;;;;;;;;;;;;;27.45;47.22;100739.28;5086822;28;1342;-63
2021/07/26 12:18:04;;;;;;;;;;;;;;;27.47;47.73;100732.81;5086658;28;1158;-65
2021/07/26 12:20:31;;;;;;;;;;;;;;;27.46;47.45;100720.41;5086050;28;1906;-64
2021/07/26 12:23:09;;;;;;;;;;;;;;;27.49;48.08;100724.63;5086018;28;825;-63
2021/07/26 12:25:56;;;;;;;;;;;;;;;27.48;47.78;100723.78;5087361;28;1351;-63
2021/07/26 12:28:39;;;;;;;;;;;;;;;27.43;48.08;100710.00;5086624;28;1315;-66
2021/07/26 12:31:24;;;;;;;;;;;;;;;27.49;48.26;100708.56;5066694;28;1101;-66
2021/07/26 12:34:07;;;;;;;;;;;;;;;27.58;48.39;100708.53;5066907;28;1322;-67
2021/07/26 12:36:34;;;;;;;;;;;;;;;27.58;49.75;100697.84;5067307;28;1125;-68
2021/07/26 12:39:04;;;;;;;;;;;;;;;27.63;48.71;100692.06;5088695;28;1351;-65
2021/07/26 12:41:31;;;;;;;;;;;;;;;27.62;48.67;100685.88;5088735;28;1911;-64
2021/07/26 12:44:17;;;;;;;;;;;;;;;27.60;48.54;100673.63;5061710;28;1208;-70
2021/07/26 12:46:51;;;;;;;;;;;;;;;27.64;48.89;100666.97;5067102;28;1119;-66
2021/07/26 12:49:19;;;;;;;;;;;;;;;27.55;48.63;100662.50;5035253;28;1637;-68
2021/07/26 12:51:46;;;;;;;;;;;;;;;27.54;48.55;100648.28;5086550;28;1411;-68
2021/07/26 12:54:13;;;;;;;;;;;;;;;27.50;48.50;100638.88;5089151;28;1401;-65
2021/07/26 12:56:40;;;;;;;;;;;;;;;27.54;48.14;100637.56;5073379;28;1116;-67
2021/07/26 12:59:06;;;;;;;;;;;;;;;27.55;47.94;100633.94;5090810;28;1228;-68